Time;durP1;ratioP1;P1;durP2;ratioP2;P2;SDS_P1;SDS_P2;PMS_P1;PMS_P2;Temp;Humidity;BMP_temperature;BMP_pressure;BME280_temperature;BME280_humidity;BME280_pressure;Samples;Min_cycle;Max_cycle;Signal;HPM_P1;HPM_P2
2023/12/26 00:01:27;;;;;;;130.02;56.85;;;18.80;68.50;;;;;;5040546;28;20331;-40
2023/12/26 00:03:53;;;;;;;129.40;57.15;;;18.90;68.50;;;;;;5037212;28;20526;-44
2023/12/26 00:06:22;;;;;;;128.70;56.70;;;18.90;68.40;;;;;;5043505;28;20987;-39
2023/12/26 00:08:48;;;;;;;129.85;57.13;;;18.90;68.40;;;;;;5043811;28;20136;-40
2023/12/26 00:11:15;;;;;;;128.93;56.75;;;18.80;68.40;;;;;;5044678;28;20041;-40
2023/12/26 00:13:41;;;;;;;128.20;56.35;;;18.80;68.40;;;;;;5039146;28;20029;-39
2023/12/26 00:16:07;;;;;;;127.82;56.22;;;18.80;68.40;;;;;;5041418;28;20050;-39
2023/12/26 00:18:33;;;;;;;129.43;57.15;;;18.80;68.40;;;;;;5042955;28;20053;-39
2023/12/26 00:20:58;;;;;;;130.30;56.72;;;18.70;68.50;;;;;;5039658;28;20092;-39
2023/12/26 00:23:24;;;;;;;128.07;56.55;;;18.70;68.60;;;;;;5038164;28;20045;-41
2023/12/26 00:25:50;;;;;;;129.45;57.33;;;18.70;68.70;;;;;;5040569;28;20798;-42
2023/12/26 00:28:19;;;;;;;128.90;56.80;;;18.60;68.60;;;;;;5043129;28;20038;-41
2023/12/26 00:30:45;;;;;;;129.32;57.33;;;18.60;68.60;;;;;;5041582;28;20855;-42
2023/12/26 00:33:10;;;;;;;129.40;56.70;;;18.60;68.70;;;;;;5043728;28;20095;-39
2023/12/26 00:35:36;;;;;;;130.20;57.38;;;18.60;68.70;;;;;;5043869;28;20460;-40
2023/12/26 00:38:02;;;;;;;132.25;56.97;;;18.50;68.90;;;;;;5042437;28;20112;-40
2023/12/26 00:40:28;;;;;;;129.45;56.83;;;18.50;68.80;;;;;;5039328;28;20045;-41
2023/12/26 00:42:53;;;;;;;129.13;57.28;;;18.50;68.90;;;;;;5037739;28;20037;-39
2023/12/26 00:45:22;;;;;;;128.27;56.63;;;18.50;69.00;;;;;;5040107;28;20674;-39
2023/12/26 00:47:50;;;;;;;130.60;57.35;;;18.50;69.00;;;;;;5040353;28;20096;-41
2023/12/26 00:50:16;;;;;;;128.80;56.78;;;18.40;69.00;;;;;;5043753;28;20090;-42
2023/12/26 00:52:43;;;;;;;128.38;56.83;;;18.40;69.10;;;;;;5039537;28;20041;-39
2023/12/26 00:55:09;;;;;;;131.00;57.88;;;18.40;69.20;;;;;;5041771;28;20072;-39
2023/12/26 00:57:35;;;;;;;129.90;57.15;;;18.40;69.30;;;;;;5044211;28;20129;-39
2023/12/26 01:00:04;;;;;;;129.68;57.35;;;18.30;69.20;;;;;;5043806;28;20041;-39
2023/12/26 01:02:30;;;;;;;129.30;57.17;;;18.30;69.30;;;;;;5035307;28;20940;-39
2023/12/26 01:04:56;;;;;;;129.07;56.95;;;18.20;69.60;;;;;;5040912;28;20048;-41
2023/12/26 01:07:22;;;;;;;131.05;56.90;;;18.20;69.60;;;;;;5041020;28;20049;-41
2023/12/26 01:09:47;;;;;;;130.32;56.72;;;18.20;69.70;;;;;;5038888;28;20037;-39
2023/12/26 01:12:13;;;;;;;129.25;56.80;;;18.10;69.80;;;;;;5043058;28;20025;-42
2023/12/26 01:14:40;;;;;;;128.95;56.72;;;18.10;69.70;;;;;;5041495;28;20377;-42
2023/12/26 01:17:06;;;;;;;130.85;57.17;;;18.10;69.90;;;;;;5038207;28;20399;-39
2023/12/26 01:19:31;;;;;;;128.35;56.50;;;18.10;70.00;;;;;;5040970;28;20052;-39
2023/12/26 01:21:57;;;;;;;129.25;57.08;;;18.00;70.00;;;;;;5035786;28;20057;-38
2023/12/26 01:24:23;;;;;;;132.50;57.35;;;18.00;70.10;;;;;;5040621;28;20077;-39
2023/12/26 01:26:48;;;;;;;129.07;57.20;;;18.00;70.20;;;;;;5040098;28;20130;-40
2023/12/26 01:29:14;;;;;;;129.23;56.90;;;17.90;70.20;;;;;;5042414;28;20054;-41
2023/12/26 01:31:40;;;;;;;129.88;57.58;;;18.00;70.30;;;;;;5038769;28;20033;-40
2023/12/26 01:34:06;;;;;;;127.63;56.78;;;17.90;70.30;;;;;;5033901;28;20041;-38
2023/12/26 01:36:35;;;;;;;129.63;56.90;;;17.90;70.30;;;;;;5037848;28;20548;-38
2023/12/26 01:39:01;;;;;;;130.25;57.65;;;17.90;70.50;;;;;;5037282;28;20503;-40
2023/12/26 01:41:27;;;;;;;130.07;57.30;;;17.80;70.50;;;;;;5036583;28;20041;-39
2023/12/26 01:43:52;;;;;;;128.38;56.80;;;17.80;70.70;;;;;;5039498;28;20141;-38
2023/12/26 01:46:19;;;;;;;128.68;56.90;;;17.80;70.70;;;;;;5036805;28;20547;-40
2023/12/26 01:48:47;;;;;;;131.02;57.20;;;17.80;70.80;;;;;;5038125;28;20045;-40
2023/12/26 01:51:15;;;;;;;128.68;57.00;;;17.70;70.80;;;;;;5037776;28;20041;-40
2023/12/26 01:53:41;;;;;;;128.70;56.95;;;17.80;71.00;;;;;;5038411;28;20514;-39
2023/12/26 01:56:11;;;;;;;129.02;57.33;;;17.70;71.00;;;;;;5032403;28;20042;-39
2023/12/26 01:58:38;;;;;;;129.73;57.38;;;17.70;71.20;;;;;;5038801;28;20048;-39
2023/12/26 02:01:04;;;;;;;128.45;56.88;;;17.70;71.30;;;;;;5038065;28;20802;-40
2023/12/26 02:03:32;;;;;;;129.68;57.53;;;17.70;71.40;;;;;;5035018;28;20042;-40
2023/12/26 02:06:00;;;;;;;129.23;56.85;;;17.60;71.30;;;;;;5036926;28;20053;-40
2023/12/26 02:08:25;;;;;;;130.52;57.55;;;17.60;71.40;;;;;;5040182;28;20247;-39
2023/12/26 02:10:51;;;;;;;127.65;56.85;;;17.70;71.50;;;;;;5041034;28;20034;-39
2023/12/26 02:13:17;;;;;;;130.52;57.83;;;17.60;71.50;;;;;;5035940;28;20049;-41
2023/12/26 02:15:44;;;;;;;131.10;57.08;;;17.60;71.60;;;;;;5042106;28;20088;-41
2023/12/26 02:18:11;;;;;;;129.20;56.97;;;17.60;71.50;;;;;;5036415;28;20049;-39
2023/12/26 02:20:37;;;;;;;128.50;56.75;;;17.60;71.70;;;;;;5041620;28;20072;-39
2023/12/26 02:23:03;;;;;;;128.15;56.90;;;17.50;71.70;;;;;;5035113;28;20721;-39
2023/12/26 02:25:28;;;;;;;128.05;56.55;;;17.50;71.80;;;;;;5038656;28;20167;-39
2023/12/26 02:27:54;;;;;;;129.98;56.65;;;17.50;71.80;;;;;;5042899;28;20158;-38
2023/12/26 02:30:23;;;;;;;127.95;56.65;;;17.50;71.90;;;;;;5038219;28;20039;-38
2023/12/26 02:32:50;;;;;;;129.55;57.20;;;17.50;72.60;;;;;;5043004;28;20992;-40
2023/12/26 02:35:17;;;;;;;129.00;56.50;;;17.50;72.10;;;;;;5028249;28;20064;-40
2023/12/26 02:37:43;;;;;;;127.97;56.38;;;17.50;72.10;;;;;;5035852;28;20080;-40
2023/12/26 02:40:09;;;;;;;129.15;56.53;;;17.40;72.00;;;;;;5039621;28;20038;-39
2023/12/26 02:42:35;;;;;;;127.53;56.08;;;17.50;72.10;;;;;;5036500;28;20046;-38
2023/12/26 02:45:00;;;;;;;127.10;56.83;;;17.40;72.20;;;;;;5035895;28;20068;-40
2023/12/26 02:47:26;;;;;;;127.80;56.30;;;17.40;72.20;;;;;;5040019;28;21320;-42
2023/12/26 02:49:52;;;;;;;127.00;56.42;;;17.40;72.30;;;;;;5041314;28;20040;-39
2023/12/26 02:52:18;;;;;;;127.85;56.50;;;17.40;72.30;;;;;;5040461;28;20048;-39
2023/12/26 02:54:44;;;;;;;127.78;55.90;;;17.30;72.30;;;;;;5038268;28;20050;-41
2023/12/26 02:57:09;;;;;;;127.43;56.63;;;17.30;72.30;;;;;;5039410;28;20160;-41
2023/12/26 02:59:35;;;;;;;130.75;56.17;;;17.30;72.30;;;;;;5043666;28;20184;-38
2023/12/26 03:02:01;;;;;;;128.52;56.97;;;17.30;72.40;;;;;;5035505;28;20260;-40
2023/12/26 03:04:26;;;;;;;127.90;57.15;;;17.30;72.50;;;;;;5040417;28;20045;-39
2023/12/26 03:06:53;;;;;;;126.35;56.15;;;17.30;72.40;;;;;;5037854;28;20108;-41
2023/12/26 03:09:18;;;;;;;128.00;56.25;;;17.30;72.50;;;;;;5038287;28;20606;-39
2023/12/26 03:11:44;;;;;;;126.10;55.63;;;17.30;72.60;;;;;;5040443;28;20042;-42
2023/12/26 03:14:11;;;;;;;128.50;56.05;;;17.30;72.60;;;;;;5039580;28;20939;-41
2023/12/26 03:16:38;;;;;;;128.80;56.40;;;17.30;72.70;;;;;;5033924;28;20124;-46
2023/12/26 03:19:04;;;;;;;126.80;56.40;;;17.20;72.70;;;;;;5043810;28;20041;-47
2023/12/26 03:21:29;;;;;;;127.63;56.60;;;17.30;72.70;;;;;;5040419;28;20042;-42
2023/12/26 03:23:55;;;;;;;128.50;57.30;;;17.20;72.50;;;;;;5038293;28;20049;-40
2023/12/26 03:26:21;;;;;;;128.85;56.75;;;17.30;72.60;;;;;;5034213;28;20129;-42
2023/12/26 03:28:46;;;;;;;127.80;56.17;;;17.20;72.70;;;;;;5040873;28;20654;-42
2023/12/26 03:31:12;;;;;;;127.72;56.22;;;17.20;72.70;;;;;;5037399;28;20053;-41
2023/12/26 03:33:38;;;;;;;126.43;56.35;;;17.20;72.70;;;;;;5036533;28;20366;-40
2023/12/26 03:36:04;;;;;;;128.43;55.95;;;17.20;72.80;;;;;;5043712;28;20562;-43
2023/12/26 03:38:30;;;;;;;127.47;56.80;;;17.20;72.80;;;;;;5035724;28;20272;-44
2023/12/26 03:40:56;;;;;;;127.95;56.28;;;17.20;72.80;;;;;;5039907;28;20033;-43
2023/12/26 03:43:22;;;;;;;127.10;56.05;;;17.20;72.80;;;;;;5044940;28;20100;-44
2023/12/26 03:45:49;;;;;;;127.10;56.38;;;17.20;72.90;;;;;;5041661;28;21177;-42
2023/12/26 03:48:15;;;;;;;127.82;56.50;;;17.20;73.00;;;;;;5039111;28;20065;-42
2023/12/26 03:50:40;;;;;;;124.93;55.42;;;17.10;72.90;;;;;;5043215;28;20057;-42
2023/12/26 03:53:06;;;;;;;126.95;56.45;;;17.20;73.00;;;;;;5038646;28;20076;-41
2023/12/26 03:55:32;;;;;;;127.10;56.25;;;17.20;73.00;;;;;;5043495;28;20100;-45
2023/12/26 03:57:58;;;;;;;128.90;56.25;;;17.20;73.00;;;;;;5045620;28;20058;-44
2023/12/26 04:00:24;;;;;;;127.03;56.67;;;17.10;72.90;;;;;;5036111;28;20133;-41
2023/12/26 04:02:49;;;;;;;126.75;56.33;;;17.10;73.00;;;;;;5039080;28;20073;-48
2023/12/26 04:05:15;;;;;;;126.78;56.17;;;17.10;73.20;;;;;;5042562;28;20049;-44
2023/12/26 04:07:41;;;;;;;127.60;56.63;;;17.10;73.30;;;;;;5043541;28;20205;-40
2023/12/26 04:10:07;;;;;;;127.10;56.45;;;17.10;73.20;;;;;;5036294;28;20140;-44
2023/12/26 04:12:34;;;;;;;126.95;56.53;;;17.10;73.30;;;;;;5040337;28;20124;-42
2023/12/26 04:15:00;;;;;;;126.32;55.97;;;17.10;73.30;;;;;;5041890;28;20038;-44
2023/12/26 04:17:26;;;;;;;126.15;56.15;;;17.10;74.00;;;;;;5040051;28;20042;-43
2023/12/26 04:19:52;;;;;;;126.63;56.35;;;17.10;73.30;;;;;;5040350;28;20490;-42
2023/12/26 04:22:18;;;;;;;126.53;56.25;;;17.10;73.30;;;;;;5044483;28;20459;-43
2023/12/26 04:24:43;;;;;;;127.88;56.00;;;17.10;73.30;;;;;;5043806;28;20065;-47
2023/12/26 04:27:09;;;;;;;127.78;56.40;;;17.10;73.40;;;;;;5044831;28;20038;-42
2023/12/26 04:29:35;;;;;;;126.75;56.25;;;17.10;73.30;;;;;;5040450;28;20076;-41
2023/12/26 04:32:00;;;;;;;126.50;55.95;;;17.10;73.40;;;;;;5041037;28;20064;-39
2023/12/26 04:34:26;;;;;;;127.07;56.58;;;17.10;73.40;;;;;;5039819;28;20404;-40
2023/12/26 04:36:51;;;;;;;126.45;56.38;;;17.00;73.50;;;;;;5042086;28;20091;-41
2023/12/26 04:39:17;;;;;;;126.93;55.97;;;17.00;73.40;;;;;;5037406;28;20680;-40
2023/12/26 04:41:46;;;;;;;126.03;55.70;;;17.10;73.40;;;;;;5039394;28;20083;-39
2023/12/26 04:44:11;;;;;;;126.22;56.05;;;17.00;73.50;;;;;;5040041;28;20037;-39
2023/12/26 04:46:37;;;;;;;128.30;56.63;;;17.00;73.30;;;;;;5036467;28;20034;-40
2023/12/26 04:49:03;;;;;;;127.03;56.10;;;17.10;73.60;;;;;;5038891;28;20083;-39
2023/12/26 04:51:30;;;;;;;127.63;56.78;;;17.00;73.60;;;;;;5038223;28;20042;-39
2023/12/26 04:53:56;;;;;;;132.55;57.10;;;17.00;73.70;;;;;;5041557;28;20045;-39
2023/12/26 04:56:23;;;;;;;128.35;56.40;;;17.00;73.70;;;;;;5035637;28;20050;-39
2023/12/26 04:58:51;;;;;;;127.82;57.15;;;17.00;73.80;;;;;;5035792;28;20049;-42
2023/12/26 05:01:18;;;;;;;126.63;55.85;;;17.00;73.90;;;;;;5037064;28;20598;-39
2023/12/26 05:03:45;;;;;;;129.82;56.53;;;16.90;73.70;;;;;;5039874;28;20044;-40
2023/12/26 05:06:11;;;;;;;127.15;56.50;;;17.00;73.90;;;;;;5040294;28;20905;-39
2023/12/26 05:08:38;;;;;;;126.13;55.72;;;16.90;73.90;;;;;;5037258;28;20092;-40
2023/12/26 05:11:05;;;;;;;126.85;56.20;;;16.90;74.00;;;;;;5034939;28;20056;-41
2023/12/26 05:13:32;;;;;;;126.50;56.17;;;16.90;73.90;;;;;;5037681;28;20044;-39
2023/12/26 05:16:02;;;;;;;129.38;56.58;;;16.90;74.20;;;;;;5033618;28;20037;-42
2023/12/26 05:18:27;;;;;;;127.47;56.45;;;16.90;74.20;;;;;;5038905;28;20613;-40
2023/12/26 05:20:53;;;;;;;127.55;56.53;;;16.90;74.20;;;;;;5038388;28;20033;-40
2023/12/26 05:23:19;;;;;;;126.55;56.15;;;16.90;74.20;;;;;;5039182;28;20044;-39
2023/12/26 05:25:44;;;;;;;128.48;56.83;;;16.90;74.20;;;;;;5038851;28;20524;-41
2023/12/26 05:28:10;;;;;;;130.85;56.67;;;16.90;74.20;;;;;;5045253;28;20528;-40
2023/12/26 05:30:35;;;;;;;127.45;56.45;;;16.90;74.10;;;;;;5033866;28;20543;-41
2023/12/26 05:33:01;;;;;;;128.43;56.50;;;16.90;74.00;;;;;;5035662;28;20511;-40
2023/12/26 05:35:27;;;;;;;126.68;56.20;;;16.90;74.20;;;;;;5038316;28;20132;-40
2023/12/26 05:37:53;;;;;;;129.93;56.80;;;16.90;74.10;;;;;;5039126;28;20050;-39
2023/12/26 05:40:19;;;;;;;128.98;56.40;;;16.90;74.20;;;;;;5034617;28;20064;-40
2023/12/26 05:42:47;;;;;;;128.43;56.05;;;16.90;74.20;;;;;;5039274;28;20033;-40
2023/12/26 05:45:13;;;;;;;132.00;56.88;;;16.80;74.10;;;;;;5038684;28;20029;-40
2023/12/26 05:47:38;;;;;;;129.40;56.35;;;16.80;74.10;;;;;;5038289;28;20042;-40
2023/12/26 05:50:05;;;;;;;125.93;56.40;;;16.80;74.20;;;;;;5039039;28;20044;-39
2023/12/26 05:52:31;;;;;;;129.10;56.53;;;16.80;74.30;;;;;;5038258;28;20466;-39
2023/12/26 05:54:56;;;;;;;128.00;56.28;;;16.80;74.20;;;;;;5035611;28;20611;-39
2023/12/26 05:57:23;;;;;;;126.72;56.10;;;16.80;74.20;;;;;;5041243;28;20045;-40
2023/12/26 05:59:49;;;;;;;128.77;56.25;;;16.80;74.20;;;;;;5038954;28;20053;-41
2023/12/26 06:02:15;;;;;;;127.53;55.95;;;16.80;74.10;;;;;;5035458;28;20482;-38
2023/12/26 06:04:40;;;;;;;131.00;56.47;;;16.80;74.30;;;;;;5040019;28;20068;-38
2023/12/26 06:07:07;;;;;;;128.82;56.08;;;16.80;74.10;;;;;;5037150;28;20054;-38
2023/12/26 06:09:33;;;;;;;128.63;56.45;;;16.80;74.30;;;;;;5037921;28;20302;-39
2023/12/26 06:11:59;;;;;;;130.00;56.72;;;16.80;74.30;;;;;;5039175;28;20151;-38
2023/12/26 06:14:25;;;;;;;127.53;56.53;;;16.70;74.20;;;;;;5037024;28;20037;-39
2023/12/26 06:16:50;;;;;;;127.90;56.50;;;16.80;74.30;;;;;;5038549;28;20083;-39
2023/12/26 06:19:16;;;;;;;127.80;56.35;;;16.70;74.30;;;;;;5037048;28;20049;-40
2023/12/26 06:21:42;;;;;;;128.40;55.83;;;16.70;74.20;;;;;;5033505;28;20034;-39
2023/12/26 06:24:08;;;;;;;128.60;56.30;;;16.70;74.30;;;;;;5039096;28;20041;-39
2023/12/26 06:26:34;;;;;;;127.97;55.90;;;16.70;74.20;;;;;;5036623;28;20034;-39
2023/12/26 06:29:00;;;;;;;127.93;56.08;;;16.70;74.10;;;;;;5041047;28;20064;-38
2023/12/26 06:31:25;;;;;;;127.43;56.08;;;16.70;74.10;;;;;;5038528;28;20038;-38
2023/12/26 06:33:51;;;;;;;126.03;56.33;;;16.70;74.10;;;;;;5030787;28;20046;-39
2023/12/26 06:36:17;;;;;;;126.35;55.80;;;16.70;74.10;;;;;;5042254;28;20455;-38
2023/12/26 06:38:43;;;;;;;128.20;56.45;;;16.70;74.20;;;;;;5037624;28;20227;-39
2023/12/26 06:41:10;;;;;;;127.07;56.08;;;16.70;74.10;;;;;;5039014;28;20033;-40
2023/12/26 06:43:37;;;;;;;126.25;56.08;;;16.70;74.20;;;;;;5041997;28;20716;-42
2023/12/26 06:46:06;;;;;;;128.15;56.15;;;16.70;74.10;;;;;;5040009;28;20104;-41
2023/12/26 06:48:31;;;;;;;127.15;56.83;;;16.70;74.20;;;;;;5037655;28;20046;-43
2023/12/26 06:50:57;;;;;;;128.77;56.63;;;16.70;74.30;;;;;;5040025;28;20041;-43
2023/12/26 06:53:23;;;;;;;128.73;56.83;;;16.70;74.30;;;;;;5037761;28;20644;-44
2023/12/26 06:55:49;;;;;;;126.57;56.05;;;16.70;74.40;;;;;;5040261;28;20817;-43
2023/12/26 06:58:14;;;;;;;129.88;55.95;;;16.60;74.30;;;;;;5039239;28;20052;-42
2023/12/26 07:00:40;;;;;;;125.82;55.55;;;16.70;74.20;;;;;;5036546;28;20763;-44
2023/12/26 07:03:08;;;;;;;126.90;56.28;;;16.60;74.20;;;;;;5037123;28;20515;-44
2023/12/26 07:05:34;;;;;;;127.38;56.33;;;16.60;74.20;;;;;;5036194;28;20467;-41
2023/12/26 07:08:00;;;;;;;127.88;56.55;;;16.60;74.20;;;;;;5036771;28;20046;-42
2023/12/26 07:10:26;;;;;;;127.32;56.03;;;16.60;74.20;;;;;;5039059;28;20184;-43
2023/12/26 07:12:51;;;;;;;126.93;56.28;;;16.70;74.10;;;;;;5040030;28;20573;-43
2023/12/26 07:15:17;;;;;;;128.57;56.53;;;16.70;74.20;;;;;;5040180;28;20112;-41
2023/12/26 07:17:43;;;;;;;127.95;56.17;;;16.60;74.10;;;;;;5039733;28;20047;-44
2023/12/26 07:20:09;;;;;;;127.63;57.08;;;16.60;74.20;;;;;;5040504;28;20037;-45
2023/12/26 07:22:35;;;;;;;128.13;56.00;;;16.60;74.20;;;;;;5039837;28;20044;-44
2023/12/26 07:25:00;;;;;;;126.35;56.33;;;16.60;74.30;;;;;;5031942;28;20038;-44
2023/12/26 07:27:26;;;;;;;128.52;56.00;;;16.60;74.30;;;;;;5036580;28;20049;-44
2023/12/26 07:29:52;;;;;;;127.50;55.90;;;16.60;74.30;;;;;;5040980;28;20046;-39
2023/12/26 07:32:20;;;;;;;126.13;55.15;;;16.60;74.20;;;;;;5037953;28;20041;-40
2023/12/26 07:34:47;;;;;;;128.27;55.70;;;16.60;74.20;;;;;;5040278;28;20076;-44
2023/12/26 07:37:12;;;;;;;125.95;55.15;;;16.60;74.20;;;;;;5037794;28;20045;-43
2023/12/26 07:39:38;;;;;;;127.22;55.65;;;16.50;74.20;;;;;;5040801;28;20037;-44
2023/12/26 07:42:04;;;;;;;125.28;55.63;;;16.60;74.30;;;;;;5038817;28;20603;-41
2023/12/26 07:44:29;;;;;;;128.52;56.17;;;16.60;74.20;;;;;;5042006;28;20890;-41
2023/12/26 07:46:55;;;;;;;128.77;56.00;;;16.60;74.20;;;;;;5045739;28;20056;-42
2023/12/26 07:49:22;;;;;;;125.75;55.83;;;16.50;74.10;;;;;;5039405;28;20046;-40
2023/12/26 07:51:47;;;;;;;127.15;55.90;;;16.60;74.20;;;;;;5034331;28;20474;-42
2023/12/26 07:54:13;;;;;;;127.65;56.50;;;16.50;74.20;;;;;;5035446;28;20038;-42
2023/12/26 07:56:39;;;;;;;128.60;56.55;;;16.50;74.10;;;;;;5039039;28;20657;-41
2023/12/26 07:59:05;;;;;;;127.28;55.95;;;16.50;74.10;;;;;;5034351;28;20034;-41
2023/12/26 08:01:31;;;;;;;125.60;55.80;;;16.50;73.80;;;;;;5035261;28;20459;-42
2023/12/26 08:03:57;;;;;;;129.20;56.50;;;16.50;73.70;;;;;;5040433;28;20092;-42
2023/12/26 08:06:26;;;;;;;128.20;56.33;;;16.50;73.90;;;;;;5041402;28;21253;-42
2023/12/26 08:08:52;;;;;;;131.52;55.95;;;16.50;73.90;;;;;;5041772;28;20038;-41
2023/12/26 08:11:19;;;;;;;128.57;56.72;;;16.40;73.80;;;;;;5038618;28;20091;-45
2023/12/26 08:13:44;;;;;;;128.13;55.80;;;16.40;73.70;;;;;;5039791;28;20041;-41
2023/12/26 08:16:10;;;;;;;134.15;56.60;;;16.40;73.70;;;;;;5038196;28;20096;-41
2023/12/26 08:18:36;;;;;;;128.30;56.35;;;16.40;73.70;;;;;;5036025;28;20124;-44
2023/12/26 08:21:03;;;;;;;129.20;56.70;;;16.40;74.40;;;;;;5029752;28;20053;-40
2023/12/26 08:23:29;;;;;;;126.18;56.13;;;16.40;73.60;;;;;;5038800;28;20049;-44
2023/12/26 08:25:55;;;;;;;130.45;57.42;;;16.40;73.80;;;;;;5040807;28;20761;-43
2023/12/26 08:28:21;;;;;;;131.05;57.50;;;16.40;74.30;;;;;;5035847;28;20064;-45
2023/12/26 08:30:47;;;;;;;133.23;57.30;;;16.50;74.70;;;;;;5042259;28;20423;-46
2023/12/26 08:33:15;;;;;;;129.23;57.20;;;16.40;74.70;;;;;;5033571;28;20513;-44
2023/12/26 08:35:41;;;;;;;128.35;57.28;;;16.50;75.10;;;;;;5036680;28;20409;-43
2023/12/26 08:38:06;;;;;;;129.50;56.67;;;16.50;75.20;;;;;;5038376;28;20156;-44
2023/12/26 08:40:32;;;;;;;131.18;56.70;;;16.50;75.10;;;;;;5038097;28;20049;-42
2023/12/26 08:42:58;;;;;;;127.40;57.15;;;16.60;75.10;;;;;;5035724;28;20539;-42
2023/12/26 08:45:23;;;;;;;127.22;57.03;;;16.60;75.00;;;;;;5037025;28;20037;-46
2023/12/26 08:47:52;;;;;;;129.88;57.72;;;16.60;75.00;;;;;;5033069;28;20042;-45
2023/12/26 08:50:18;;;;;;;133.63;60.47;;;16.60;75.00;;;;;;5037180;28;20514;-42
2023/12/26 08:52:44;;;;;;;129.25;59.88;;;16.60;75.00;;;;;;5035939;28;20041;-44
2023/12/26 08:55:10;;;;;;;134.88;60.33;;;16.60;75.00;;;;;;5033891;28;20143;-46
2023/12/26 08:57:35;;;;;;;131.95;60.05;;;16.70;75.10;;;;;;5037261;28;20088;-43
2023/12/26 09:00:01;;;;;;;131.48;59.67;;;16.70;75.00;;;;;;5039984;28;20123;-42
2023/12/26 09:02:28;;;;;;;130.70;60.03;;;16.70;74.80;;;;;;5036614;28;20057;-43
2023/12/26 09:04:53;;;;;;;129.73;58.85;;;16.80;74.70;;;;;;5035920;28;20432;-42
2023/12/26 09:07:19;;;;;;;129.48;59.15;;;16.80;74.40;;;;;;5039280;28;20116;-45
2023/12/26 09:09:44;;;;;;;133.60;59.20;;;16.80;74.60;;;;;;5040200;28;20535;-43
2023/12/26 09:12:10;;;;;;;130.82;58.65;;;16.90;74.50;;;;;;5037118;28;20877;-40
2023/12/26 09:14:37;;;;;;;131.65;59.50;;;16.90;74.30;;;;;;5039842;28;20516;-39
2023/12/26 09:17:03;;;;;;;131.23;58.78;;;16.90;74.00;;;;;;5039107;28;20040;-40
2023/12/26 09:19:28;;;;;;;133.35;58.95;;;16.90;74.20;;;;;;5037172;28;20030;-41
2023/12/26 09:21:54;;;;;;;130.65;59.20;;;17.00;74.20;;;;;;5037525;28;20528;-41
2023/12/26 09:24:20;;;;;;;139.80;63.75;;;16.90;73.90;;;;;;5032015;28;20084;-40
2023/12/26 09:26:46;;;;;;;140.55;64.38;;;17.00;74.50;;;;;;5037979;28;20092;-40
2023/12/26 09:29:11;;;;;;;136.48;62.97;;;17.00;74.10;;;;;;5037896;28;20041;-40
2023/12/26 09:31:37;;;;;;;137.27;62.70;;;17.00;74.00;;;;;;5033517;28;20038;-41
2023/12/26 09:34:03;;;;;;;136.40;62.80;;;17.00;74.30;;;;;;5028210;28;20164;-42
2023/12/26 09:36:28;;;;;;;136.98;62.20;;;17.00;74.40;;;;;;5032347;28;20061;-40
2023/12/26 09:38:54;;;;;;;135.32;61.78;;;17.00;74.10;;;;;;5039620;28;20046;-42
2023/12/26 09:41:26;;;;;;;137.35;60.15;;;17.10;74.40;;;;;;5032419;28;20040;-40
2023/12/26 09:43:52;;;;;;;140.13;61.97;;;17.20;73.90;;;;;;5039937;28;20052;-39
2023/12/26 09:46:18;;;;;;;138.05;61.05;;;17.20;73.60;;;;;;5030230;28;20102;-39
2023/12/26 09:48:45;;;;;;;138.20;60.97;;;17.30;73.40;;;;;;5037422;28;20604;-39
2023/12/26 09:51:19;;;;;;;145.90;61.17;;;17.30;73.30;;;;;;5037434;28;20103;-39
2023/12/26 09:53:46;;;;;;;135.73;61.13;;;17.40;73.20;;;;;;5038058;28;20049;-40
2023/12/26 09:56:12;;;;;;;143.60;66.25;;;17.40;73.70;;;;;;5031404;28;20435;-40
2023/12/26 09:58:43;;;;;;;145.18;65.10;;;17.40;73.00;;;;;;5035196;28;20681;-40
2023/12/26 10:01:11;;;;;;;146.60;64.77;;;17.40;73.20;;;;;;5030314;28;20945;-40
2023/12/26 10:03:38;;;;;;;142.60;64.10;;;17.40;73.60;;;;;;5038159;28;20052;-39
2023/12/26 10:06:05;;;;;;;143.93;63.42;;;17.40;73.10;;;;;;5028490;28;20312;-39
2023/12/26 10:08:30;;;;;;;145.88;63.15;;;17.30;74.10;;;;;;5030395;28;20038;-40
2023/12/26 10:10:56;;;;;;;152.82;62.45;;;17.40;75.00;;;;;;5035530;28;20104;-39
2023/12/26 10:13:22;;;;;;;139.20;60.85;;;17.50;75.50;;;;;;5033083;28;20064;-39
2023/12/26 10:15:48;;;;;;;139.43;61.75;;;17.60;75.20;;;;;;5031212;28;20041;-39
2023/12/26 10:18:14;;;;;;;145.23;62.17;;;17.60;75.80;;;;;;5032488;28;20067;-39
2023/12/26 10:20:40;;;;;;;144.23;62.40;;;17.60;76.10;;;;;;5034591;28;20120;-40
2023/12/26 10:23:05;;;;;;;144.52;61.47;;;17.60;75.30;;;;;;5038866;28;20037;-37
2023/12/26 10:25:31;;;;;;;140.93;62.10;;;17.50;75.60;;;;;;5034004;28;20574;-37
2023/12/26 10:27:58;;;;;;;142.18;62.38;;;17.50;75.60;;;;;;5033783;28;20050;-38
2023/12/26 10:30:27;;;;;;;143.15;61.08;;;17.40;75.20;;;;;;5034751;28;20230;-38
2023/12/26 10:33:02;;;;;;;139.68;61.25;;;17.40;75.20;;;;;;5017930;28;20170;-39
2023/12/26 10:35:28;;;;;;;140.13;61.08;;;17.40;74.50;;;;;;5030056;28;20183;-41
2023/12/26 10:37:55;;;;;;;143.27;61.30;;;17.40;75.30;;;;;;5016683;28;20815;-39
2023/12/26 10:40:21;;;;;;;134.68;60.63;;;17.50;75.70;;;;;;5025810;28;20571;-38
2023/12/26 10:42:50;;;;;;;140.35;60.90;;;17.60;75.50;;;;;;5030965;28;20167;-42
2023/12/26 10:45:18;;;;;;;135.00;60.28;;;17.70;74.70;;;;;;5029114;28;20045;-39
2023/12/26 10:47:48;;;;;;;142.07;59.88;;;17.70;74.20;;;;;;5032488;28;20134;-44
2023/12/26 10:50:18;;;;;;;138.77;60.50;;;17.80;74.00;;;;;;5032309;28;20539;-44
2023/12/26 10:53:21;;;;;;;134.68;59.75;;;17.90;74.10;;;;;;5027288;28;20155;-44
2023/12/26 10:55:48;;;;;;;139.18;60.30;;;17.90;74.40;;;;;;5022122;28;20034;-43
2023/12/26 10:58:29;;;;;;;137.00;60.10;;;17.90;74.60;;;;;;5025400;28;20060;-41
2023/12/26 13:51:27;;;;;;;143.38;62.72;;;19.00;69.90;;;;;;5033645;28;19939;-41
2023/12/26 13:53:53;;;;;;;140.02;62.70;;;19.00;69.60;;;;;;5042382;28;20124;-42
2023/12/26 13:56:19;;;;;;;140.45;63.22;;;19.00;69.80;;;;;;5031528;28;20034;-43
2023/12/26 13:58:45;;;;;;;140.85;62.70;;;19.00;70.10;;;;;;5024400;28;20193;-43
2023/12/26 14:01:12;;;;;;;145.73;63.42;;;19.10;69.80;;;;;;5037955;28;20037;-39
2023/12/26 14:03:38;;;;;;;141.95;62.53;;;19.10;70.00;;;;;;5030683;28;20534;-40
2023/12/26 14:06:04;;;;;;;143.55;62.17;;;19.20;70.00;;;;;;5030534;28;20057;-42
2023/12/26 14:08:30;;;;;;;146.30;62.58;;;19.20;70.10;;;;;;5026098;28;20049;-39
2023/12/26 14:10:56;;;;;;;143.20;62.72;;;19.20;69.80;;;;;;5037578;28;20037;-51
2023/12/26 14:13:21;;;;;;;145.00;62.42;;;19.20;69.60;;;;;;5036811;28;20056;-42
2023/12/26 14:15:47;;;;;;;143.90;63.05;;;19.20;69.90;;;;;;5034579;28;20424;-40
2023/12/26 14:18:13;;;;;;;144.65;63.22;;;19.20;69.80;;;;;;5033830;28;20124;-41
2023/12/26 14:20:38;;;;;;;141.82;61.83;;;19.20;70.00;;;;;;5034019;28;20033;-40
2023/12/26 14:23:04;;;;;;;144.00;62.25;;;19.20;70.00;;;;;;5032931;28;20499;-40
2023/12/26 14:25:30;;;;;;;145.98;61.40;;;19.30;69.70;;;;;;5028162;28;20128;-43
2023/12/26 14:27:56;;;;;;;142.07;61.88;;;19.20;69.20;;;;;;5034590;28;20072;-41
2023/12/26 14:30:21;;;;;;;142.02;62.42;;;19.10;68.90;;;;;;5031814;28;20029;-40
2023/12/26 14:32:47;;;;;;;138.57;61.05;;;19.10;69.10;;;;;;5034289;28;20542;-37
2023/12/26 14:35:13;;;;;;;142.05;61.53;;;19.10;69.30;;;;;;5035368;28;20042;-41
2023/12/26 14:37:39;;;;;;;140.63;61.72;;;19.10;69.00;;;;;;5034269;28;20045;-38
2023/12/26 14:40:05;;;;;;;138.15;60.63;;;19.20;69.50;;;;;;5039779;28;20030;-37
2023/12/26 14:42:30;;;;;;;141.18;61.88;;;19.30;69.00;;;;;;5036970;28;20053;-39
2023/12/26 14:44:56;;;;;;;143.25;62.08;;;19.30;69.10;;;;;;5030242;28;20949;-39
2023/12/26 14:47:22;;;;;;;141.32;61.22;;;19.30;68.80;;;;;;5032714;28;20094;-39
2023/12/26 14:49:47;;;;;;;138.45;61.22;;;19.40;68.50;;;;;;5033734;28;20044;-39
2023/12/26 14:52:13;;;;;;;140.70;62.25;;;19.40;68.40;;;;;;5036276;28;20174;-39
2023/12/26 14:54:39;;;;;;;141.10;61.60;;;19.40;68.30;;;;;;5029650;28;20463;-38
2023/12/26 14:57:04;;;;;;;140.60;61.20;;;19.40;68.30;;;;;;5033040;28;20178;-38
2023/12/26 14:59:30;;;;;;;141.18;61.05;;;19.40;68.50;;;;;;5032762;28;20042;-42
2023/12/26 15:02:01;;;;;;;138.45;60.78;;;19.40;67.60;;;;;;5035214;28;20056;-44
2023/12/26 15:04:28;;;;;;;140.77;61.38;;;19.50;68.20;;;;;;5036914;28;20155;-45